Time;durP1;ratioP1;P1;durP2;ratioP2;P2;SDS_P1;SDS_P2;PMS_P1;PMS_P2;Temp;Humidity;BMP_temperature;BMP_pressure;BME280_temperature;BME280_humidity;BME280_pressure;Samples;Min_cycle;Max_cycle;Signal;HPM_P1;HPM_P2
2022/03/12 00:01:35;;;;;;;12.77;5.63;;;;;;;1.25;43.71;96381.44;5053873;28;20558;-87
2022/03/12 00:04:06;;;;;;;10.37;5.57;;;;;;;1.20;43.72;96378.31;5036395;28;20527;-87
2022/03/12 00:06:32;;;;;;;8.20;4.43;;;;;;;1.26;43.95;96380.50;5035395;28;20459;-87
2022/03/12 00:08:59;;;;;;;12.30;5.13;;;;;;;1.20;43.82;96375.72;5032930;28;20543;-87
2022/03/12 00:11:39;;;;;;;9.63;5.23;;;;;;;1.05;44.59;96375.78;5053826;28;20556;-88
2022/03/12 00:14:07;;;;;;;10.37;5.07;;;;;;;1.03;44.75;96381.97;5050803;28;21027;-86
2022/03/12 00:16:34;;;;;;;10.43;5.23;;;;;;;0.99;44.96;96383.09;5059492;28;20451;-86
2022/03/12 00:19:05;;;;;;;10.17;5.20;;;;;;;1.03;44.38;96385.38;5029030;28;20815;-87
2022/03/12 00:21:36;;;;;;;12.40;5.20;;;;;;;0.93;44.82;96397.25;5052262;28;20431;-87
2022/03/12 00:24:06;;;;;;;12.03;5.70;;;;;;;0.91;44.46;96386.19;5050150;28;20467;-88
2022/03/12 00:26:50;;;;;;;10.97;5.67;;;;;;;0.86;44.84;96393.38;5052982;28;20486;-87
2022/03/12 00:29:21;;;;;;;12.63;5.17;;;;;;;0.93;44.56;96397.25;5052255;28;20540;-87
2022/03/12 00:31:50;;;;;;;9.80;5.30;;;;;;;0.85;44.79;96397.75;5049663;28;20486;-87
2022/03/12 00:34:34;;;;;;;10.40;5.13;;;;;;;0.91;44.55;96399.13;5050793;28;20477;-87
2022/03/12 00:37:00;;;;;;;10.83;5.43;;;;;;;0.91;44.73;96405.13;5033597;28;21055;-87
2022/03/12 00:39:30;;;;;;;12.20;5.27;;;;;;;0.84;44.90;96409.03;5053695;28;20478;-87
2022/03/12 00:41:57;;;;;;;11.90;5.93;;;;;;;0.76;44.86;96402.66;5050580;28;20481;-87
2022/03/12 00:44:22;;;;;;;11.53;5.60;;;;;;;0.75;44.80;96398.41;5035131;28;20861;-87
2022/03/12 00:46:51;;;;;;;12.57;7.50;;;;;;;0.74;44.65;96401.91;5035132;28;20474;-87
2022/03/12 00:49:18;;;;;;;12.47;5.60;;;;;;;0.71;45.25;96402.94;5038722;28;20119;-87
2022/03/12 00:51:48;;;;;;;8.67;4.97;;;;;;;0.67;45.02;96412.66;5038124;28;20557;-87
2022/03/12 00:54:18;;;;;;;10.03;5.23;;;;;;;0.66;44.51;96400.63;5068295;28;20482;-87
2022/03/12 00:56:44;;;;;;;11.00;5.60;;;;;;;0.73;45.28;96400.25;5036810;28;20467;-87
2022/03/12 00:59:10;;;;;;;11.00;5.37;;;;;;;0.68;44.63;96398.78;5050252;28;20451;-87
2022/03/12 01:01:35;;;;;;;10.73;5.10;;;;;;;0.60;45.16;96405.34;5041049;28;20032;-87
2022/03/12 01:04:03;;;;;;;13.17;5.27;;;;;;;0.58;44.79;96396.88;5033343;28;20124;-87
2022/03/12 01:06:29;;;;;;;12.27;5.73;;;;;;;0.62;45.42;96399.16;5053619;28;20060;-87
2022/03/12 01:08:56;;;;;;;9.30;5.30;;;;;;;0.61;45.58;96397.50;5035156;28;20502;-88
2022/03/12 01:11:23;;;;;;;10.43;4.90;;;;;;;0.56;45.25;96394.34;5035714;28;20115;-88
2022/03/12 01:13:50;;;;;;;10.03;5.10;;;;;;;0.44;45.70;96400.28;5034757;28;20462;-87
2022/03/12 01:16:18;;;;;;;10.03;5.53;;;;;;;0.41;46.04;96400.47;5019546;28;20495;-85
2022/03/12 01:18:45;;;;;;;13.10;5.40;;;;;;;0.43;45.13;96402.03;5032755;28;20459;-88
2022/03/12 01:21:18;;;;;;;10.40;6.23;;;;;;;0.44;45.68;96401.13;5066987;28;20633;-88
2022/03/12 01:23:51;;;;;;;10.40;5.07;;;;;;;0.36;45.80;96399.91;5064801;28;20463;-87
2022/03/12 01:26:21;;;;;;;15.23;6.17;;;;;;;0.39;45.72;96399.72;5050519;28;20462;-87
2022/03/12 01:28:47;;;;;;;10.17;4.97;;;;;;;0.41;45.91;96392.72;5061629;28;20502;-88
2022/03/12 01:31:15;;;;;;;10.40;5.63;;;;;;;0.51;45.96;96399.00;5052557;28;20461;-87
2022/03/12 01:33:54;;;;;;;11.43;4.60;;;;;;;0.46;45.26;96393.25;5047886;28;20026;-87
2022/03/12 01:36:20;;;;;;;9.70;4.67;;;;;;;0.47;45.89;96389.75;5030116;28;20463;-87
2022/03/12 01:38:51;;;;;;;10.27;5.03;;;;;;;0.40;45.88;96398.78;5037081;28;21224;-87
2022/03/12 01:41:26;;;;;;;12.50;5.43;;;;;;;0.39;45.96;96397.97;5051396;28;20036;-87
2022/03/12 01:43:55;;;;;;;8.40;4.67;;;;;;;0.39;46.08;96395.38;5032816;28;20512;-87
2022/03/12 01:46:34;;;;;;;11.37;5.43;;;;;;;0.40;45.10;96403.97;5026187;28;20463;-88
2022/03/12 01:49:10;;;;;;;10.03;5.23;;;;;;;0.35;46.01;96404.25;5046940;28;20477;-88
2022/03/12 01:51:39;;;;;;;11.93;5.00;;;;;;;0.26;45.68;96398.81;5032339;28;20478;-87
2022/03/12 01:54:05;;;;;;;10.63;4.87;;;;;;;0.28;45.59;96391.78;5032391;28;20474;-87
2022/03/12 01:56:35;;;;;;;11.17;5.57;;;;;;;0.26;46.23;96391.88;5030826;28;20834;-87
2022/03/12 01:59:01;;;;;;;10.00;4.90;;;;;;;0.26;45.61;96391.03;5050135;28;20463;-88
2022/03/12 02:01:28;;;;;;;11.10;5.57;;;;;;;0.25;45.91;96395.38;5032741;28;20534;-88
2022/03/12 02:03:56;;;;;;;10.40;4.90;;;;;;;0.18;45.97;96402.69;5036615;28;20466;-87
2022/03/12 02:06:24;;;;;;;9.47;4.90;;;;;;;0.14;46.13;96400.38;5054116;28;20871;-87
2022/03/12 02:08:55;;;;;;;9.90;4.67;;;;;;;0.07;46.32;96389.56;5043866;28;21362;-87
2022/03/12 02:11:28;;;;;;;12.33;5.30;;;;;;;0.14;45.77;96397.78;5051212;28;20458;-88
2022/03/12 02:14:16;;;;;;;10.10;5.03;;;;;;;-0.02;46.80;96384.94;5051423;28;20475;-87
2022/03/12 02:16:50;;;;;;;12.73;5.73;;;;;;;0.03;46.54;96384.66;5068431;28;20535;-88
2022/03/12 02:19:19;;;;;;;9.43;5.57;;;;;;;0.03;46.32;96390.66;5051020;28;20474;-88
2022/03/12 02:22:00;;;;;;;10.37;5.53;;;;;;;0.06;46.33;96387.06;5045396;28;20028;-87
2022/03/12 02:24:32;;;;;;;9.00;4.65;;;;;;;-0.06;46.43;96386.03;5071195;28;20451;-87
2022/03/12 02:27:26;;;;;;;12.03;5.20;;;;;;;-0.11;46.29;96396.63;5057695;28;20123;-88
2022/03/12 02:29:59;;;;;;;11.37;4.87;;;;;;;-0.04;46.20;96389.34;5052603;28;20470;-87
2022/03/12 02:32:46;;;;;;;12.07;4.70;;;;;;;-0.10;46.42;96398.31;5048788;28;21697;-88
2022/03/12 02:35:35;;;;;;;10.83;4.83;;;;;;;-0.08;46.00;96395.63;5071315;28;20522;-87
2022/03/12 02:38:07;;;;;;;11.03;5.07;;;;;;;-0.14;46.35;96391.66;5053598;28;21043;-87
2022/03/12 02:40:35;;;;;;;10.17;5.80;;;;;;;-0.17;46.33;96393.56;5034669;28;20577;-87
2022/03/12 02:43:08;;;;;;;11.10;5.17;;;;;;;-0.16;46.71;96395.25;5051856;28;20463;-88
2022/03/12 02:45:35;;;;;;;13.43;4.77;;;;;;;-0.16;46.58;96390.91;5042209;28;20482;-88
2022/03/12 02:48:08;;;;;;;9.20;4.83;;;;;;;-0.12;46.20;96387.22;5038820;28;20463;-88
2022/03/12 02:50:36;;;;;;;9.70;5.07;;;;;;;-0.16;46.36;96384.91;5052624;28;20037;-87
2022/03/12 02:53:06;;;;;;;12.33;5.63;;;;;;;-0.17;46.74;96378.91;5056321;28;20454;-88
2022/03/12 02:55:36;;;;;;;10.00;4.97;;;;;;;-0.25;47.00;96387.09;5054387;28;20479;-88
2022/03/12 02:58:28;;;;;;;10.23;5.07;;;;;;;-0.25;46.43;96394.84;5053735;28;20590;-87
2022/03/12 03:00:57;;;;;;;10.70;5.57;;;;;;;-0.30;47.14;96393.47;5051139;28;20553;-88
2022/03/12 03:03:23;;;;;;;11.93;5.43;;;;;;;-0.20;46.55;96396.34;5039030;28;20493;-88
2022/03/12 03:05:59;;;;;;;13.77;5.67;;;;;;;-0.30;46.96;96394.31;5049257;28;20497;-87
2022/03/12 03:08:30;;;;;;;10.43;5.23;;;;;;;-0.28;47.00;96394.22;5054943;28;20470;-88
2022/03/12 03:11:02;;;;;;;11.03;5.30;;;;;;;-0.32;46.78;96398.72;5047124;28;20482;-88
2022/03/12 03:13:44;;;;;;;8.80;4.77;;;;;;;-0.28;46.75;96392.44;5056670;28;20477;-88
2022/03/12 03:16:24;;;;;;;10.80;5.03;;;;;;;-0.34;46.84;96410.06;5034011;28;20471;-87
2022/03/12 03:18:58;;;;;;;11.87;4.43;;;;;;;-0.26;46.51;96405.31;5052468;28;20538;-88
2022/03/12 03:21:28;;;;;;;12.10;5.17;;;;;;;-0.32;46.56;96410.81;5056112;28;20545;-88
2022/03/12 03:23:57;;;;;;;8.57;4.87;;;;;;;-0.32;47.58;96416.00;5072155;28;20467;-88
2022/03/12 03:26:41;;;;;;;12.83;4.93;;;;;;;-0.41;47.48;96414.75;5024088;28;20574;-87
2022/03/12 03:29:08;;;;;;;9.33;4.50;;;;;;;-0.43;47.47;96419.19;5039232;28;20494;-87
2022/03/12 03:31:36;;;;;;;9.23;4.90;;;;;;;-0.40;47.45;96413.00;5036466;28;20829;-88
2022/03/12 03:34:08;;;;;;;12.30;6.07;;;;;;;-0.44;47.03;96412.34;5055959;28;20473;-87
2022/03/12 03:36:34;;;;;;;19.27;5.83;;;;;;;-0.43;47.76;96419.19;5049936;28;20466;-88
2022/03/12 03:39:00;;;;;;;9.10;4.93;;;;;;;-0.48;47.83;96423.78;5029637;28;20447;-87
2022/03/12 03:41:27;;;;;;;10.47;4.67;;;;;;;-0.43;47.64;96419.19;5056051;28;20028;-87
2022/03/12 03:43:53;;;;;;;12.83;5.27;;;;;;;-0.44;48.14;96416.69;5041869;28;20474;-87
2022/03/12 03:46:21;;;;;;;10.73;5.37;;;;;;;-0.47;48.21;96433.16;5049621;28;20043;-87
2022/03/12 03:48:50;;;;;;;10.57;5.00;;;;;;;-0.50;48.28;96434.22;5055617;28;20471;-87
2022/03/12 03:51:18;;;;;;;11.27;4.83;;;;;;;-0.42;47.25;96436.34;5056775;28;20555;-87
2022/03/12 03:53:48;;;;;;;9.50;5.20;;;;;;;-0.39;47.25;96435.34;5054927;28;20475;-87
2022/03/12 03:56:17;;;;;;;14.17;6.40;;;;;;;-0.45;47.97;96441.69;5065114;28;20510;-87
2022/03/12 03:58:48;;;;;;;9.73;5.13;;;;;;;-0.44;47.88;96443.34;5053596;28;20621;-87
2022/03/12 04:01:22;;;;;;;8.53;4.53;;;;;;;-0.46;47.49;96449.53;5047633;28;20474;-87
2022/03/12 04:03:54;;;;;;;9.40;4.73;;;;;;;-0.49;47.62;96451.34;5052194;28;20509;-88
2022/03/12 04:06:22;;;;;;;;;;;;;;;-0.46;47.71;96450.38;5051769;28;20466;-87
2022/03/12 04:08:51;;;;;;;8.83;4.73;;;;;;;-0.52;47.46;96450.69;5034743;28;19923;-88
2022/03/12 04:11:26;;;;;;;10.80;5.33;;;;;;;-0.55;47.88;96454.28;5050935;28;20869;-86
2022/03/12 04:13:54;;;;;;;10.17;4.80;;;;;;;-0.53;48.33;96452.47;5050439;28;20508;-87
2022/03/12 04:16:22;;;;;;;10.37;4.83;;;;;;;-0.59;48.50;96457.13;5036754;28;20492;-87
2022/03/12 04:18:55;;;;;;;10.03;4.73;;;;;;;-0.54;48.40;96458.56;5066846;28;20880;-87
2022/03/12 04:21:21;;;;;;;10.13;5.30;;;;;;;-0.59;48.35;96454.56;5054149;28;20481;-88
2022/03/12 04:23:49;;;;;;;10.18;5.18;;;;;;;-0.55;48.80;96451.69;5069135;28;20541;-87
2022/03/12 04:26:23;;;;;;;10.43;5.13;;;;;;;-0.53;48.66;96459.38;5068818;28;20150;-87
2022/03/12 04:28:51;;;;;;;13.00;6.80;;;;;;;-0.58;49.00;96457.03;5036940;28;20470;-88
2022/03/12 04:31:21;;;;;;;13.07;5.90;;;;;;;-0.57;48.75;96455.28;5045786;28;20505;-87
2022/03/12 04:33:47;;;;;;;9.63;5.60;;;;;;;-0.57;48.49;96460.44;5033241;28;20467;-87
2022/03/12 04:36:14;;;;;;;12.70;5.00;;;;;;;-0.59;48.46;96457.13;5034471;28;21014;-87
2022/03/12 04:38:46;;;;;;;10.00;5.30;;;;;;;-0.58;48.75;96466.53;5052653;28;20451;-87
2022/03/12 04:41:23;;;;;;;13.20;5.73;;;;;;;-0.58;48.95;96458.78;5029826;28;20459;-88
2022/03/12 04:43:52;;;;;;;8.63;4.97;;;;;;;-0.57;48.68;96457.84;5040800;28;20479;-88
2022/03/12 04:46:18;;;;;;;9.90;5.70;;;;;;;-0.59;49.33;96462.28;5051413;28;20024;-88
2022/03/12 04:48:45;;;;;;;14.30;5.60;;;;;;;-0.47;48.85;96456.44;5051691;28;20550;-87
2022/03/12 04:51:12;;;;;;;10.67;5.03;;;;;;;-0.49;49.09;96461.69;5048316;28;20102;-87
2022/03/12 04:53:40;;;;;;;16.47;6.47;;;;;;;-0.54;48.83;96462.84;5035322;28;20458;-87
2022/03/12 04:56:09;;;;;;;13.10;5.97;;;;;;;-0.52;49.30;96463.63;5026062;28;20475;-87
2022/03/12 04:58:39;;;;;;;10.43;5.53;;;;;;;-0.54;48.68;96457.69;5053157;28;20525;-87
2022/03/12 05:01:13;;;;;;;11.43;6.53;;;;;;;-0.55;49.52;96462.03;5035263;28;20451;-88
2022/03/12 05:03:38;;;;;;;10.57;5.40;;;;;;;-0.55;49.52;96456.88;5048368;28;20570;-87
2022/03/12 05:06:05;;;;;;;12.07;6.43;;;;;;;-0.60;49.30;96456.31;5047773;28;20558;-87
2022/03/12 05:08:35;;;;;;;10.67;5.40;;;;;;;-0.51;48.96;96454.94;5053104;28;20056;-88
2022/03/12 05:11:06;;;;;;;11.10;6.20;;;;;;;-0.55;49.43;96466.38;5048222;28;20569;-88
2022/03/12 05:13:39;;;;;;;13.27;5.20;;;;;;;-0.43;48.72;96464.88;5070229;28;20960;-87
2022/03/12 05:16:08;;;;;;;13.30;5.80;;;;;;;-0.49;48.41;96466.84;5044951;28;20435;-87
2022/03/12 05:18:37;;;;;;;12.57;5.17;;;;;;;-0.50;48.70;96474.72;5033580;28;21031;-87
2022/03/12 05:21:06;;;;;;;12.57;5.80;;;;;;;-0.49;49.36;96473.78;5047729;28;20567;-88
2022/03/12 05:23:34;;;;;;;10.53;5.33;;;;;;;-0.59;50.09;96475.22;5067784;28;20462;-88
2022/03/12 05:26:01;;;;;;;12.17;6.90;;;;;;;-0.67;50.68;96483.41;5049349;28;20485;-88
2022/03/12 05:28:32;;;;;;;10.03;5.13;;;;;;;-0.77;51.36;96492.53;5049925;28;21237;-87
2022/03/12 05:31:05;;;;;;;10.17;5.33;;;;;;;-0.75;51.50;96486.38;5042774;28;20039;-88
2022/03/12 05:33:34;;;;;;;11.27;5.87;;;;;;;-0.89;51.67;96488.88;5046947;28;20523;-87
2022/03/12 05:36:03;;;;;;;11.13;6.33;;;;;;;-1.01;51.81;96487.78;5049239;28;20467;-88
2022/03/12 05:38:32;;;;;;;11.77;6.20;;;;;;;-1.02;52.20;96490.47;5060238;28;20467;-88
2022/03/12 05:41:13;;;;;;;13.60;6.87;;;;;;;-0.98;52.03;96486.78;5034297;28;20443;-87
2022/03/12 05:43:46;;;;;;;11.20;6.33;;;;;;;-0.95;52.04;96484.03;5048852;28;20601;-87
2022/03/12 05:46:15;;;;;;;11.60;5.87;;;;;;;-0.98;52.18;96484.22;5054771;28;20816;-89
2022/03/12 05:48:42;;;;;;;8.03;5.27;;;;;;;-0.86;52.25;96490.47;5066807;28;20562;-87
2022/03/12 05:51:11;;;;;;;10.47;6.00;;;;;;;-0.84;51.90;96492.06;5050168;28;21206;-87
2022/03/12 05:53:37;;;;;;;15.00;5.63;;;;;;;-0.97;52.27;96491.88;5032912;28;21024;-87
2022/03/12 05:56:06;;;;;;;13.43;5.40;;;;;;;-0.93;53.03;96497.72;5052356;28;20529;-87
2022/03/12 05:58:39;;;;;;;10.97;5.27;;;;;;;-0.88;52.05;96500.03;5035339;28;20477;-88
2022/03/12 06:01:07;;;;;;;11.03;6.03;;;;;;;-0.87;52.33;96497.38;5051028;28;20531;-88
2022/03/12 06:03:33;;;;;;;12.27;5.80;;;;;;;-0.80;52.65;96495.31;5034622;28;20555;-87
2022/03/12 06:05:59;;;;;;;11.83;5.17;;;;;;;-0.72;52.57;96501.69;5051494;28;20577;-87
2022/03/12 06:08:28;;;;;;;11.80;5.50;;;;;;;-0.68;52.81;96504.13;5035967;28;20797;-88
2022/03/12 06:10:56;;;;;;;10.23;4.87;;;;;;;-0.64;53.03;96513.38;5066160;28;20470;-88
2022/03/12 06:13:28;;;;;;;10.20;5.10;;;;;;;-0.56;52.24;96517.22;5049872;28;21646;-87
2022/03/12 06:16:00;;;;;;;10.23;5.50;;;;;;;-0.70;52.58;96509.38;5033701;28;20475;-88
2022/03/12 06:18:35;;;;;;;10.63;5.23;;;;;;;-0.66;52.88;96510.88;5084655;28;20462;-88
2022/03/12 06:21:04;;;;;;;9.77;5.35;;;;;;;-0.58;53.00;96506.09;5040197;28;20468;-87
2022/03/12 06:23:35;;;;;;;11.13;5.17;;;;;;;-0.69;52.79;96511.03;5050632;28;20083;-88
2022/03/12 06:26:14;;;;;;;11.47;5.73;;;;;;;-0.57;52.74;96502.63;5035882;28;21088;-88
2022/03/12 06:28:44;;;;;;;10.30;5.33;;;;;;;-0.51;52.70;96514.34;5021633;28;20493;-88
2022/03/12 06:31:13;;;;;;;12.97;6.83;;;;;;;-0.24;52.51;96520.56;5036802;28;20555;-87
2022/03/12 06:33:40;;;;;;;13.53;6.10;;;;;;;0.01;51.62;96513.19;5036971;28;20530;-87
2022/03/12 06:36:09;;;;;;;12.97;6.53;;;;;;;0.12;50.98;96519.41;5037060;28;20477;-87
2022/03/12 06:38:37;;;;;;;12.10;6.43;;;;;;;0.11;50.29;96527.28;5021004;28;20474;-87
2022/03/12 06:41:19;;;;;;;14.03;7.00;;;;;;;0.42;49.89;96513.38;5052815;28;20454;-88
2022/03/12 06:43:50;;;;;;;12.87;6.17;;;;;;;0.56;49.68;96518.56;5053231;28;20473;-88
2022/03/12 06:46:17;;;;;;;13.40;6.33;;;;;;;0.77;49.23;96520.78;5051978;28;20462;-88
2022/03/12 06:48:43;;;;;;;11.20;6.03;;;;;;;1.15;48.96;96516.72;5054039;28;20467;-88
2022/03/12 06:51:13;;;;;;;10.37;5.77;;;;;;;1.54;48.14;96522.09;5030106;28;20498;-88
2022/03/12 06:53:40;;;;;;;11.93;5.93;;;;;;;2.06;46.62;96519.59;5052401;28;20499;-88
2022/03/12 06:56:28;;;;;;;11.80;6.10;;;;;;;2.32;46.23;96515.28;5039959;28;20468;-88
2022/03/12 06:58:57;;;;;;;10.80;5.63;;;;;;;2.83;44.90;96515.31;5048771;28;20044;-87
2022/03/12 07:01:27;;;;;;;9.17;5.07;;;;;;;3.03;44.25;96515.72;5027050;28;20830;-88
2022/03/12 07:03:54;;;;;;;10.77;5.77;;;;;;;3.29;43.47;96517.34;5052727;28;20044;-87
2022/03/12 07:06:21;;;;;;;11.80;6.27;;;;;;;3.23;43.29;96522.97;5035834;28;20562;-88
2022/03/12 07:08:47;;;;;;;13.07;6.13;;;;;;;3.23;42.75;96522.13;5019441;28;20538;-88
2022/03/12 07:11:31;;;;;;;12.07;6.40;;;;;;;3.59;42.48;96531.72;5049259;28;20040;-87
2022/03/12 07:13:59;;;;;;;11.57;6.00;;;;;;;2.76;43.35;96534.03;5072635;28;20462;-87
2022/03/12 07:16:29;;;;;;;11.37;6.13;;;;;;;4.10;40.90;96533.28;5044155;28;20525;-87
2022/03/12 07:19:01;;;;;;;9.90;6.43;;;;;;;4.33;40.54;96534.19;5048124;28;20452;-88
2022/03/12 07:21:29;;;;;;;12.57;6.50;;;;;;;4.66;40.67;96525.63;5049901;28;20467;-87
2022/03/12 07:23:57;;;;;;;9.90;5.63;;;;;;;4.66;40.39;96526.47;5044632;28;20471;-88
2022/03/12 07:26:26;;;;;;;11.30;5.83;;;;;;;4.39;41.09;96526.75;5022867;28;20451;-88
2022/03/12 07:29:13;;;;;;;10.63;6.33;;;;;;;3.99;40.68;96527.09;5024241;28;20467;-87
2022/03/12 07:31:39;;;;;;;10.53;5.77;;;;;;;4.07;40.85;96538.72;5068503;28;20466;-87
2022/03/12 07:34:08;;;;;;;11.50;6.03;;;;;;;4.35;41.09;96538.31;5052238;28;20996;-87
2022/03/12 07:36:34;;;;;;;13.00;6.57;;;;;;;4.97;39.95;96529.34;5020016;28;20475;-88
2022/03/12 07:39:17;;;;;;;9.87;6.27;;;;;;;4.42;40.26;96526.50;5032072;28;20475;-87
2022/03/12 07:41:50;;;;;;;10.00;4.38;;;;;;;5.60;38.97;96527.06;5055364;28;20091;-87
2022/03/12 07:44:17;;;;;;;12.87;6.50;;;;;;;5.35;39.14;96528.16;5033846;28;20060;-87
2022/03/12 07:46:43;;;;;;;9.27;5.73;;;;;;;5.37;39.18;96531.50;5044339;28;20443;-88
2022/03/12 07:49:34;;;;;;;10.73;5.87;;;;;;;5.54;38.48;96538.81;5044654;28;20475;-88
2022/03/12 07:52:10;;;;;;;10.03;6.23;;;;;;;5.97;37.25;96539.81;5037014;28;20479;-87
2022/03/12 07:55:00;;;;;;;11.47;6.23;;;;;;;6.89;36.27;96540.94;5047646;28;20463;-87
2022/03/12 07:57:28;;;;;;;13.73;7.03;;;;;;;6.93;36.47;96544.13;5030760;28;20550;-87
2022/03/12 07:59:55;;;;;;;16.87;6.30;;;;;;;6.31;36.83;96541.38;5053112;28;20038;-87
2022/03/12 08:02:21;;;;;;;13.53;7.00;;;;;;;6.76;35.87;96541.13;5071116;28;20036;-87
2022/03/12 08:04:48;;;;;;;10.97;6.20;;;;;;;7.11;35.46;96542.59;5053093;28;20443;-87
2022/03/12 08:07:14;;;;;;;11.73;6.97;;;;;;;7.16;35.45;96539.56;5034133;28;20029;-86
2022/03/12 08:09:42;;;;;;;14.93;7.60;;;;;;;6.72;36.21;96537.13;5039350;28;20044;-87
2022/03/12 08:12:08;;;;;;;14.17;6.60;;;;;;;6.33;36.01;96534.22;5057261;28;20024;-87
2022/03/12 08:14:34;;;;;;;14.10;6.00;;;;;;;6.74;35.88;96535.22;5055685;28;20036;-87
2022/03/12 08:17:00;;;;;;;14.67;5.83;;;;;;;7.09;35.18;96528.78;5049704;28;20036;-86
2022/03/12 08:19:31;;;;;;;12.97;6.57;;;;;;;6.99;35.80;96530.53;5030724;28;20047;-87
2022/03/12 08:22:04;;;;;;;11.97;6.83;;;;;;;7.47;34.96;96533.34;5038791;28;20058;-87
2022/03/12 08:24:30;;;;;;;13.37;7.90;;;;;;;7.83;34.55;96535.53;5029064;28;20029;-87
2022/03/12 08:26:56;;;;;;;17.07;7.27;;;;;;;7.36;34.53;96530.00;5035658;28;20100;-88
2022/03/12 08:29:22;;;;;;;11.37;7.50;;;;;;;8.06;33.78;96528.25;5035311;28;20033;-87
2022/03/12 08:31:48;;;;;;;15.53;10.10;;;;;;;7.75;34.63;96537.03;5035303;28;20799;-88
2022/03/12 08:34:27;;;;;;;17.93;9.07;;;;;;;7.57;34.24;96536.00;5040168;28;20035;-88
2022/03/12 08:36:53;;;;;;;15.50;10.03;;;;;;;7.54;35.39;96542.34;5035318;28;20025;-86
2022/03/12 08:39:28;;;;;;;15.20;8.07;;;;;;;7.68;34.77;96546.38;5047640;28;20048;-84
2022/03/12 08:41:54;;;;;;;11.37;7.03;;;;;;;8.57;33.50;96538.50;5031154;28;20106;-85
2022/03/12 08:44:20;;;;;;;15.17;8.13;;;;;;;7.01;34.79;96541.72;5041045;28;20131;-85
2022/03/12 08:46:46;;;;;;;14.43;7.93;;;;;;;7.72;34.63;96539.91;5029247;28;20079;-85
2022/03/12 08:49:14;;;;;;;12.57;7.67;;;;;;;8.05;33.61;96532.69;5037977;28;20037;-87
2022/03/12 08:51:43;;;;;;;13.73;8.30;;;;;;;8.40;33.52;96531.34;5022299;28;20035;-87
2022/03/12 08:55:12;;;;;;;13.40;8.10;;;;;;;8.81;33.04;96529.34;5044975;28;20060;-87
2022/03/12 08:58:12;;;;;;;13.80;7.50;;;;;;;8.83;32.68;96528.25;4972752;28;20049;-86
2022/03/12 09:05:19;;;;;;;14.27;7.93;;;;;;;9.35;32.40;96531.25;5068955;28;20084;-87
2022/03/12 09:08:46;;;;;;;18.83;10.80;;;;;;;9.18;32.33;96540.72;5047113;28;20422;-87
2022/03/12 09:11:21;;;;;;;11.90;8.03;;;;;;;8.66;32.98;96537.66;5031616;28;20250;-87
2022/03/12 09:13:56;;;;;;;23.37;11.63;;;;;;;9.19;32.52;96524.03;5062161;28;20071;-87
2022/03/12 09:16:38;;;;;;;12.87;6.80;;;;;;;8.97;33.35;96524.34;5053429;28;20059;-87
2022/03/12 09:19:04;;;;;;;11.60;7.00;;;;;;;9.21;32.71;96524.69;5022362;28;20060;-87
2022/03/12 09:21:31;;;;;;;15.33;7.90;;;;;;;9.34;33.05;96523.53;5053312;28;20064;-87
2022/03/12 09:23:56;;;;;;;11.07;7.07;;;;;;;9.72;32.38;96513.81;5031134;28;20067;-87
2022/03/12 09:26:22;;;;;;;9.63;5.80;;;;;;;10.33;31.32;96515.81;5048945;28;20032;-87
2022/03/12 09:28:53;;;;;;;14.53;7.70;;;;;;;9.61;32.39;96518.28;5039076;28;20044;-86
2022/03/12 09:31:19;;;;;;;11.83;7.30;;;;;;;10.40;31.53;96523.91;5039130;28;20077;-87
2022/03/12 09:34:17;;;;;;;11.00;6.90;;;;;;;10.84;30.96;96516.88;5055842;28;20044;-87
2022/03/12 09:36:43;;;;;;;13.90;7.40;;;;;;;11.39;30.70;96513.88;5055461;28;20032;-87
2022/03/12 09:39:32;;;;;;;12.97;8.23;;;;;;;11.14;30.61;96510.31;5039114;28;20028;-87
2022/03/12 09:41:58;;;;;;;11.80;7.47;;;;;;;10.80;30.53;96505.00;5038817;28;20040;-87
2022/03/12 09:44:24;;;;;;;11.87;6.83;;;;;;;11.62;29.90;96513.34;5054565;28;20090;-86
2022/03/12 09:46:50;;;;;;;11.20;6.47;;;;;;;10.95;30.33;96508.72;5037599;28;20503;-87
2022/03/12 09:49:16;;;;;;;13.03;8.80;;;;;;;10.79;30.92;96511.22;5019236;28;20079;-86
2022/03/12 09:51:43;;;;;;;12.67;8.00;;;;;;;9.29;32.61;96517.88;5041342;28;20036;-87
2022/03/12 09:54:10;;;;;;;19.17;12.07;;;;;;;10.91;31.04;96514.44;5033453;28;20095;-87
2022/03/12 09:56:46;;;;;;;17.77;11.00;;;;;;;11.09;30.56;96515.22;5034055;28;20037;-87
2022/03/12 09:59:12;;;;;;;12.77;8.13;;;;;;;11.49;30.25;96516.41;5053708;28;20021;-86
2022/03/12 10:01:38;;;;;;;13.77;7.73;;;;;;;11.74;29.83;96515.53;5037191;28;20043;-86
2022/03/12 10:04:04;;;;;;;12.90;8.40;;;;;;;11.38;30.40;96509.63;5053330;28;20032;-87
2022/03/12 10:06:31;;;;;;;17.97;9.50;;;;;;;11.56;29.95;96501.63;5031422;28;20013;-86
2022/03/12 10:08:57;;;;;;;14.50;8.47;;;;;;;11.90;29.61;96509.50;5036064;28;20039;-86
2022/03/12 10:11:24;;;;;;;13.03;8.80;;;;;;;12.20;29.74;96504.63;5036424;28;20036;-86
2022/03/12 10:13:49;;;;;;;13.00;8.90;;;;;;;12.15;29.62;96501.66;5028174;28;20043;-86
2022/03/12 10:16:18;;;;;;;13.00;8.97;;;;;;;12.22;29.39;96506.13;5024603;28;20048;-86
2022/03/12 10:18:45;;;;;;;13.10;8.77;;;;;;;12.46;29.32;96504.50;5028628;28;20033;-86
2022/03/12 10:21:11;;;;;;;12.70;8.27;;;;;;;12.93;28.59;96493.25;5023378;28;20513;-86
2022/03/12 10:23:37;;;;;;;12.47;7.77;;;;;;;12.74;29.08;96503.19;5030174;28;20036;-86
2022/03/12 10:26:03;;;;;;;14.73;8.67;;;;;;;13.15;28.63;96502.28;5038388;28;20108;-86
2022/03/12 10:28:34;;;;;;;13.60;9.33;;;;;;;12.62;29.25;96498.41;5040598;28;20028;-86
2022/03/12 10:31:05;;;;;;;12.57;9.03;;;;;;;13.09;29.04;96497.69;5074210;28;20028;-86
2022/03/12 10:34:14;;;;;;;15.03;8.80;;;;;;;12.31;29.76;96506.97;5073141;28;20048;-86
2022/03/12 10:36:46;;;;;;;15.23;8.87;;;;;;;11.34;30.98;96508.28;5046650;28;20072;-86
2022/03/12 10:39:35;;;;;;;11.37;7.97;;;;;;;12.72;29.16;96494.59;5039650;28;20032;-86
2022/03/12 10:42:09;;;;;;;13.33;8.97;;;;;;;12.96;29.47;96492.91;5050796;28;20036;-87
2022/03/12 10:44:58;;;;;;;14.57;8.63;;;;;;;12.80;28.57;96500.84;5052803;28;20128;-86
2022/03/12 10:47:58;;;;;;;17.20;10.18;;;;;;;13.38;28.43;96489.19;5042428;28;20040;-86
2022/03/12 10:50:45;;;;;;;14.67;9.60;;;;;;;13.39;28.71;96493.50;5052261;28;20394;-86
2022/03/12 10:53:13;;;;;;;19.87;14.70;;;;;;;13.68;27.94;96491.09;5039174;28;20479;-86
2022/03/12 10:55:44;;;;;;;16.20;11.13;;;;;;;13.02;29.15;96480.88;5056203;28;20647;-87
2022/03/12 10:58:15;;;;;;;19.30;11.77;;;;;;;13.26;28.29;96477.38;5056000;28;20029;-86
2022/03/12 11:00:45;;;;;;;16.97;11.13;;;;;;;13.46;28.81;96485.72;5039108;28;20139;-86
2022/03/12 11:03:14;;;;;;;17.43;10.20;;;;;;;13.40;28.41;96477.47;5039171;28;20178;-87
2022/03/12 11:05:43;;;;;;;18.20;11.20;;;;;;;13.24;28.33;96474.88;5055770;28;20048;-86
2022/03/12 11:08:18;;;;;;;16.97;10.20;;;;;;;13.10;28.84;96470.28;5052798;28;20048;-86
2022/03/12 11:11:09;;;;;;;15.80;10.00;;;;;;;13.58;28.23;96468.47;5035406;28;20082;-86
2022/03/12 11:13:47;;;;;;;17.60;10.67;;;;;;;13.51;28.59;96467.53;5055817;28;20126;-86
2022/03/12 11:16:28;;;;;;;14.27;10.57;;;;;;;12.98;29.66;96459.25;5036406;28;20445;-87
2022/03/12 11:18:57;;;;;;;24.00;11.83;;;;;;;13.24;29.04;96458.19;5031154;28;20585;-87
2022/03/12 11:21:36;;;;;;;13.87;9.60;;;;;;;13.79;28.69;96444.94;5041266;28;20024;-86
2022/03/12 11:24:22;;;;;;;14.80;9.90;;;;;;;13.72;29.22;96453.75;5023992;28;20097;-87
2022/03/12 11:26:54;;;;;;;14.23;9.73;;;;;;;14.86;28.16;96437.03;5052690;28;20043;-85
2022/03/12 11:29:22;;;;;;;19.30;10.63;;;;;;;13.86;29.11;96443.25;5035481;28;20568;-85
2022/03/12 11:31:52;;;;;;;13.20;9.83;;;;;;;13.49;29.66;96445.75;5036175;28;20064;-85
2022/03/12 11:34:39;;;;;;;15.73;10.63;;;;;;;13.25;30.16;96441.41;5040858;28;20035;-84
2022/03/12 11:37:08;;;;;;;15.87;10.67;;;;;;;13.59;29.99;96438.44;5042082;28;20040;-85
2022/03/12 11:39:40;;;;;;;18.23;10.43;;;;;;;13.05;30.58;96447.03;5036045;28;20039;-85
2022/03/12 11:42:15;;;;;;;13.57;10.10;;;;;;;12.83;30.84;96439.81;5044657;28;20040;-85
2022/03/12 11:44:47;;;;;;;14.93;10.03;;;;;;;13.56;30.21;96439.59;5029909;28;20410;-86
2022/03/12 11:47:24;;;;;;;17.10;11.23;;;;;;;13.27;31.29;96448.13;5066657;28;20048;-85
2022/03/12 11:49:51;;;;;;;13.33;9.97;;;;;;;13.70;31.02;96440.69;5033182;28;20037;-85
2022/03/12 11:52:17;;;;;;;13.23;8.87;;;;;;;13.27;31.59;96439.41;5034243;28;20021;-85
2022/03/12 11:54:54;;;;;;;14.03;8.70;;;;;;;14.29;30.20;96424.28;5039638;28;20562;-85
2022/03/12 11:58:22;;;;;;;;;;;;;;;;;;;;;